Yuuki — JD3732 — position and weather

sailwx.info

Track history (hours):
 
Tides and Currents Weather Stations Pressure Air Temp Water Temp Dewpoint Dewpoint Depression Visibility Wind Speed Wind Dir Waves Ship Positions

Yuuki

Last reported at 2018-Feb-23 23:00 UTC. Time now 2018-Feb-24 03:39 UTC.
Position N 33°56' E 131°11'.

Length 60 m; draft 4.5 m.

Type: Tanker. MMSI: 431005675.

Date/timePositionNaut miles runAvg speedWind from/ knotsBaromVisibWave heightAir tempDewpointWater temp
2018-Feb-23 23:00N 33°56' E 131°11'0 0.0
2018-Feb-23 22:30N 33°56' E 131°11'0 0.5
2018-Feb-23 22:00N 33°56' E 131°11'2 3.2
2018-Feb-23 21:30N 33°54' E 131°11'0 0.6
2018-Feb-23 21:00N 33°55' E 131°11'0 0.1
2018-Feb-23 20:30N 33°55' E 131°11'0 0.0
2018-Feb-23 20:00N 33°55' E 131°11'0 0.0
2018-Feb-23 19:30N 33°55' E 131°11'0 0.1
2018-Feb-23 19:00N 33°55' E 131°11'4 8.0
2018-Feb-23 18:30N 33°56' E 131°06'611.1
2018-Feb-23 18:00N 33°59' E 131°00'4 8.9
2018-Feb-23 17:30N 33°56' E 130°56'3 6.1
2018-Feb-23 17:00N 33°56' E 130°52'510.7
2018-Feb-23 16:30N 34°01' E 130°52'611.9
2018-Feb-23 16:00N 34°07' E 130°50'611.6
2018-Feb-23 15:30N 34°13' E 130°49'711.7
2018-Feb-23 14:57N 34°19' E 130°49'  
2018-Feb-20 18:36N 34°25' E 130°54'211.6
2018-Feb-20 18:27N 34°24' E 130°52'511.4
2018-Feb-20 18:00N 34°20' E 130°49'611.3
2018-Feb-20 17:30N 34°15' E 130°49'611.4
2018-Feb-20 17:00N 34°09' E 130°50'611.4
2018-Feb-20 16:30N 34°03' E 130°51'611.2
2018-Feb-20 16:00N 33°58' E 130°52'4 7.5
2018-Feb-20 15:30N 33°56' E 130°56'511.0
2018-Feb-20 15:01N 33°58' E 131°02'611.7
2018-Feb-20 14:30N 33°55' E 131°08'611.7
2018-Feb-20 14:00N 33°52' E 131°14'611.8
2018-Feb-20 13:30N 33°51' E 131°21'611.8
2018-Feb-20 13:01N 33°50' E 131°28'611.9
2018-Feb-20 12:30N 33°49' E 131°35'611.9
2018-Feb-20 12:00N 33°48' E 131°42'611.7
2018-Feb-20 11:30N 33°47' E 131°49'611.5
2018-Feb-20 11:00N 33°46' E 131°56'1611.3
2018-Feb-20 09:37N 33°50' E 132°14'311.4
2018-Feb-20 09:21N 33°50' E 132°18'810.9
2018-Feb-20 08:37N 33°53' E 132°27'512.4
2018-Feb-20 08:11N 33°57' E 132°32'512.8
2018-Feb-20 07:50N 33°60' E 132°36'412.2
2018-Feb-20 07:30N 34°02' E 132°40'8910.9
2018-Feb-19 23:21N 34°21' E 134°25'411.3
2018-Feb-19 23:00N 34°20' E 134°29'611.5
2018-Feb-19 22:29N 34°17' E 134°35'611.5
2018-Feb-19 22:00N 34°13' E 134°40'611.7
2018-Feb-19 21:30N 34°09' E 134°44'611.1
2018-Feb-19 21:00N 34°04' E 134°49'610.6
2018-Feb-19 20:29N 34°00' E 134°53'510.8
2018-Feb-19 19:59N 33°56' E 134°58'168 9.5
2018-Feb-19 02:22N 34°33' E 138°16'510.9
2018-Feb-19 01:56N 34°34' E 138°21'510.7
2018-Feb-19 01:29N 34°34' E 138°27'610.6
2018-Feb-19 00:55N 34°35' E 138°34'510.4
2018-Feb-19 00:28N 34°35' E 138°40'810.7
2018-Feb-18 23:45N 34°35' E 138°49'510.5
2018-Feb-18 23:18N 34°35' E 138°55'410.7
2018-Feb-18 22:57N 34°38' E 138°59'511.5
2018-Feb-18 22:30N 34°42' E 139°02'611.9
2018-Feb-18 22:00N 34°47' E 139°06'811.9
2018-Feb-18 21:21N 34°53' E 139°12'1010.5
2018-Feb-18 20:24N 34°58' E 139°23'410.0
2018-Feb-18 19:58N 35°00' E 139°27'5 9.9
2018-Feb-18 19:30N 35°03' E 139°32'611.0
2018-Feb-18 18:58N 35°06' E 139°38'611.3
2018-Feb-18 18:28N 35°10' E 139°43'510.8
2018-Feb-18 18:00N 35°14' E 139°46'510.3
2018-Feb-18 17:30N 35°19' E 139°43'510.2
2018-Feb-18 17:00N 35°24' E 139°43'611.1
2018-Feb-18 16:30N 35°28' E 139°47'3 5.3
2018-Feb-18 16:00N 35°31' E 139°46'0 0.0
2018-Feb-18 15:28N 35°31' E 139°46'0 0.0
2018-Feb-18 14:59N 35°31' E 139°46'0 0.0
2018-Feb-18 14:30N 35°31' E 139°46'0 0.0
2018-Feb-18 14:00N 35°31' E 139°46'0 0.0
2018-Feb-18 13:30N 35°31' E 139°46'0 0.0
2018-Feb-18 12:59N 35°31' E 139°46'0 0.0
2018-Feb-18 12:30N 35°31' E 139°46'0 0.0
2018-Feb-18 12:00N 35°31' E 139°46'0 0.1
2018-Feb-18 11:30N 35°31' E 139°46'0 0.1
2018-Feb-18 11:00N 35°31' E 139°46'0 0.0
2018-Feb-18 10:30N 35°31' E 139°46'0 0.1
2018-Feb-18 09:58N 35°31' E 139°46'0 0.0
2018-Feb-18 09:30N 35°31' E 139°46'0 0.0
2018-Feb-18 09:00N 35°31' E 139°46'1 1.1
2018-Feb-18 08:30N 35°30' E 139°47'5 9.8
2018-Feb-18 08:00N 35°26' E 139°47'612.3
2018-Feb-18 07:30N 35°20' E 139°44'612.0
2018-Feb-18 07:00N 35°14' E 139°47'612.1
2018-Feb-18 06:30N 35°08' E 139°46'17 8.1
2018-Feb-18 04:25N 34°55' E 139°59'711.7
2018-Feb-18 03:51N 34°58' E 140°05'17 0.4
2018-Feb-16 09:59N 35°03' E 139°45'611.3
2018-Feb-16 09:28N 35°09' E 139°46'511.5
2018-Feb-16 09:00N 35°14' E 139°46'510.9
2018-Feb-16 08:30N 35°19' E 139°43'510.6
2018-Feb-16 08:01N 35°24' E 139°43'611.0
2018-Feb-16 07:30N 35°28' E 139°48'610.7
2018-Feb-16 06:59N 35°30' E 139°55'510.7
2018-Feb-16 06:30N 35°29' E 140°01'0 0.6
2018-Feb-16 05:40N 35°28' E 140°01'0 0.0
2018-Feb-16 04:55N 35°28' E 140°01'0 0.0
2018-Feb-16 04:09N 35°28' E 140°01'0 0.0
2018-Feb-16 02:59N 35°28' E 140°01'0 0.0
2018-Feb-16 02:18N 35°28' E 140°01'0 0.0
2018-Feb-16 01:59N 35°28' E 140°01'1 2.7
2018-Feb-16 01:28N 35°29' E 139°60'2 5.0
2018-Feb-16 01:00N 35°30' E 139°57'510.5
2018-Feb-16 00:31N 35°30' E 139°50'5 9.2
2018-Feb-16 00:00N 35°31' E 139°45'0 0.1
2018-Feb-15 23:30N 35°31' E 139°45'0 0.0
2018-Feb-15 23:01N 35°31' E 139°45'0 0.0
2018-Feb-15 22:31N 35°31' E 139°45'0 0.0
2018-Feb-15 22:00N 35°31' E 139°45'0 0.0
2018-Feb-15 21:30N 35°31' E 139°45'0 0.0
2018-Feb-15 21:00N 35°31' E 139°45'0 0.0
2018-Feb-15 20:30N 35°31' E 139°45'0 0.0
2018-Feb-15 19:59N 35°31' E 139°45'0 0.0
2018-Feb-15 19:29N 35°31' E 139°45'0 0.0
2018-Feb-15 19:01N 35°31' E 139°45'0 0.0
2018-Feb-15 18:30N 35°31' E 139°45'0 0.0
2018-Feb-15 18:01N 35°31' E 139°45'0 0.0
2018-Feb-15 17:31N 35°31' E 139°45'0 0.0
2018-Feb-15 16:59N 35°31' E 139°45'0 0.0
2018-Feb-15 16:30N 35°31' E 139°45'0 0.0
2018-Feb-15 16:01N 35°31' E 139°45'0 0.0
2018-Feb-15 15:30N 35°31' E 139°45'0 0.0
2018-Feb-15 15:01N 35°31' E 139°45'0 0.0
2018-Feb-15 14:30N 35°31' E 139°45'0 0.0
2018-Feb-15 14:00N 35°31' E 139°45'0 0.0
2018-Feb-15 13:30N 35°31' E 139°45'0 0.0
2018-Feb-15 13:00N 35°31' E 139°45'0 0.0
2018-Feb-15 12:30N 35°31' E 139°45'0 0.0
2018-Feb-15 12:00N 35°31' E 139°45'1 2.1
2018-Feb-15 11:30N 35°31' E 139°46'712.1
2018-Feb-15 10:54N 35°31' E 139°55'512.4
2018-Feb-15 10:30N 35°33' E 140°01'1 1.2
2018-Feb-15 10:00N 35°33' E 140°02'2 3.4
2018-Feb-15 09:30N 35°32' E 140°03'0 0.1
2018-Feb-15 08:59N 35°32' E 140°03'0 0.0
2018-Feb-15 08:30N 35°32' E 140°03'0 0.0
2018-Feb-15 08:00N 35°32' E 140°03'0 0.0
2018-Feb-15 07:30N 35°32' E 140°03'0 0.0
2018-Feb-15 07:00N 35°32' E 140°03'0 0.0
2018-Feb-15 06:30N 35°32' E 140°03'0 0.0
2018-Feb-15 06:00N 35°32' E 140°03'0 0.0
2018-Feb-15 05:30N 35°32' E 140°03'0 0.0
2018-Feb-15 05:00N 35°32' E 140°03'0 0.1
2018-Feb-15 04:30N 35°32' E 140°03'4 6.4
2018-Feb-15 03:54N 35°31' E 139°59'511.3
2018-Feb-15 03:30N 35°29' E 139°54'611.3
2018-Feb-15 03:00N 35°26' E 139°48'611.1
2018-Feb-15 02:30N 35°21' E 139°45'510.4
2018-Feb-15 02:01N 35°16' E 139°46'510.6
2018-Feb-15 01:30N 35°11' E 139°46'510.4
2018-Feb-15 01:00N 35°06' E 139°44'3112.5
2018-Feb-14 22:32N 34°47' E 139°14'112.7
2018-Feb-14 22:30N 34°46' E 139°14'712.8
2018-Feb-14 21:56N 34°42' E 139°07'1111.9
2018-Feb-14 21:00N 34°35' E 138°56'19910.5
2018-Feb-14 02:01N 33°54' E 135°01'0 8.6
2018-Feb-14 02:00N 33°54' E 135°01'611.6
2018-Feb-14 01:30N 33°59' E 134°56'811.6
2018-Feb-14 00:47N 34°05' E 134°49'1811.0
2018-Feb-13 23:11N 34°17' E 134°34'  
Track history (hours):
 
Tides and Currents Weather Stations Pressure Air Temp Water Temp Dewpoint Dewpoint Depression Visibility Wind Speed Wind Dir Waves Ship Positions

Yuuki

Last reported at 2018-Feb-23 23:00 UTC. Time now 2018-Feb-24 03:39 UTC.
Position N 33°56' E 131°11'.

Length 60 m; draft 4.5 m.

Type: Tanker. MMSI: 431005675.

Date/timePositionNaut miles runAvg speedWind from/ knotsBaromVisibWave heightAir tempDewpointWater temp
2018-Feb-23 23:00N 33°56' E 131°11'0 0.0
2018-Feb-23 22:30N 33°56' E 131°11'0 0.5
2018-Feb-23 22:00N 33°56' E 131°11'2 3.2
2018-Feb-23 21:30N 33°54' E 131°11'0 0.6
2018-Feb-23 21:00N 33°55' E 131°11'0 0.1
2018-Feb-23 20:30N 33°55' E 131°11'0 0.0
2018-Feb-23 20:00N 33°55' E 131°11'0 0.0
2018-Feb-23 19:30N 33°55' E 131°11'0 0.1
2018-Feb-23 19:00N 33°55' E 131°11'4 8.0
2018-Feb-23 18:30N 33°56' E 131°06'611.1
2018-Feb-23 18:00N 33°59' E 131°00'4 8.9
2018-Feb-23 17:30N 33°56' E 130°56'3 6.1
2018-Feb-23 17:00N 33°56' E 130°52'510.7
2018-Feb-23 16:30N 34°01' E 130°52'611.9
2018-Feb-23 16:00N 34°07' E 130°50'611.6
2018-Feb-23 15:30N 34°13' E 130°49'711.7
2018-Feb-23 14:57N 34°19' E 130°49'  
2018-Feb-20 18:36N 34°25' E 130°54'211.6
2018-Feb-20 18:27N 34°24' E 130°52'511.4
2018-Feb-20 18:00N 34°20' E 130°49'611.3
2018-Feb-20 17:30N 34°15' E 130°49'611.4
2018-Feb-20 17:00N 34°09' E 130°50'611.4
2018-Feb-20 16:30N 34°03' E 130°51'611.2
2018-Feb-20 16:00N 33°58' E 130°52'4 7.5
2018-Feb-20 15:30N 33°56' E 130°56'511.0
2018-Feb-20 15:01N 33°58' E 131°02'611.7
2018-Feb-20 14:30N 33°55' E 131°08'611.7
2018-Feb-20 14:00N 33°52' E 131°14'611.8
2018-Feb-20 13:30N 33°51' E 131°21'611.8
2018-Feb-20 13:01N 33°50' E 131°28'611.9
2018-Feb-20 12:30N 33°49' E 131°35'611.9
2018-Feb-20 12:00N 33°48' E 131°42'611.7
2018-Feb-20 11:30N 33°47' E 131°49'611.5
2018-Feb-20 11:00N 33°46' E 131°56'1611.3
2018-Feb-20 09:37N 33°50' E 132°14'311.4
2018-Feb-20 09:21N 33°50' E 132°18'810.9
2018-Feb-20 08:37N 33°53' E 132°27'512.4
2018-Feb-20 08:11N 33°57' E 132°32'512.8
2018-Feb-20 07:50N 33°60' E 132°36'412.2
2018-Feb-20 07:30N 34°02' E 132°40'8910.9
2018-Feb-19 23:21N 34°21' E 134°25'411.3
2018-Feb-19 23:00N 34°20' E 134°29'611.5
2018-Feb-19 22:29N 34°17' E 134°35'611.5
2018-Feb-19 22:00N 34°13' E 134°40'611.7
2018-Feb-19 21:30N 34°09' E 134°44'611.1
2018-Feb-19 21:00N 34°04' E 134°49'610.6
2018-Feb-19 20:29N 34°00' E 134°53'510.8
2018-Feb-19 19:59N 33°56' E 134°58'168 9.5
2018-Feb-19 02:22N 34°33' E 138°16'510.9
2018-Feb-19 01:56N 34°34' E 138°21'510.7
2018-Feb-19 01:29N 34°34' E 138°27'610.6
2018-Feb-19 00:55N 34°35' E 138°34'510.4
2018-Feb-19 00:28N 34°35' E 138°40'810.7
2018-Feb-18 23:45N 34°35' E 138°49'510.5
2018-Feb-18 23:18N 34°35' E 138°55'410.7
2018-Feb-18 22:57N 34°38' E 138°59'511.5
2018-Feb-18 22:30N 34°42' E 139°02'611.9
2018-Feb-18 22:00N 34°47' E 139°06'811.9
2018-Feb-18 21:21N 34°53' E 139°12'1010.5
2018-Feb-18 20:24N 34°58' E 139°23'410.0
2018-Feb-18 19:58N 35°00' E 139°27'5 9.9
2018-Feb-18 19:30N 35°03' E 139°32'611.0
2018-Feb-18 18:58N 35°06' E 139°38'611.3
2018-Feb-18 18:28N 35°10' E 139°43'510.8
2018-Feb-18 18:00N 35°14' E 139°46'510.3
2018-Feb-18 17:30N 35°19' E 139°43'510.2
2018-Feb-18 17:00N 35°24' E 139°43'611.1
2018-Feb-18 16:30N 35°28' E 139°47'3 5.3
2018-Feb-18 16:00N 35°31' E 139°46'0 0.0
2018-Feb-18 15:28N 35°31' E 139°46'0 0.0
2018-Feb-18 14:59N 35°31' E 139°46'0 0.0
2018-Feb-18 14:30N 35°31' E 139°46'0 0.0
2018-Feb-18 14:00N 35°31' E 139°46'0 0.0
2018-Feb-18 13:30N 35°31' E 139°46'0 0.0
2018-Feb-18 12:59N 35°31' E 139°46'0 0.0
2018-Feb-18 12:30N 35°31' E 139°46'0 0.0
2018-Feb-18 12:00N 35°31' E 139°46'0 0.1
2018-Feb-18 11:30N 35°31' E 139°46'0 0.1
2018-Feb-18 11:00N 35°31' E 139°46'0 0.0
2018-Feb-18 10:30N 35°31' E 139°46'0 0.1
2018-Feb-18 09:58N 35°31' E 139°46'0 0.0
2018-Feb-18 09:30N 35°31' E 139°46'0 0.0
2018-Feb-18 09:00N 35°31' E 139°46'1 1.1
2018-Feb-18 08:30N 35°30' E 139°47'5 9.8
2018-Feb-18 08:00N 35°26' E 139°47'612.3
2018-Feb-18 07:30N 35°20' E 139°44'612.0
2018-Feb-18 07:00N 35°14' E 139°47'612.1
2018-Feb-18 06:30N 35°08' E 139°46'17 8.1
2018-Feb-18 04:25N 34°55' E 139°59'711.7
2018-Feb-18 03:51N 34°58' E 140°05'17 0.4
2018-Feb-16 09:59N 35°03' E 139°45'611.3
2018-Feb-16 09:28N 35°09' E 139°46'511.5
2018-Feb-16 09:00N 35°14' E 139°46'510.9
2018-Feb-16 08:30N 35°19' E 139°43'510.6
2018-Feb-16 08:01N 35°24' E 139°43'611.0
2018-Feb-16 07:30N 35°28' E 139°48'610.7
2018-Feb-16 06:59N 35°30' E 139°55'510.7
2018-Feb-16 06:30N 35°29' E 140°01'0 0.6
2018-Feb-16 05:40N 35°28' E 140°01'0 0.0
2018-Feb-16 04:55N 35°28' E 140°01'0 0.0
2018-Feb-16 04:09N 35°28' E 140°01'0 0.0
2018-Feb-16 02:59N 35°28' E 140°01'0 0.0
2018-Feb-16 02:18N 35°28' E 140°01'0 0.0
2018-Feb-16 01:59N 35°28' E 140°01'1 2.7
2018-Feb-16 01:28N 35°29' E 139°60'2 5.0
2018-Feb-16 01:00N 35°30' E 139°57'510.5
2018-Feb-16 00:31N 35°30' E 139°50'5 9.2
2018-Feb-16 00:00N 35°31' E 139°45'0 0.1
2018-Feb-15 23:30N 35°31' E 139°45'0 0.0
2018-Feb-15 23:01N 35°31' E 139°45'0 0.0
2018-Feb-15 22:31N 35°31' E 139°45'0 0.0
2018-Feb-15 22:00N 35°31' E 139°45'0 0.0
2018-Feb-15 21:30N 35°31' E 139°45'0 0.0
2018-Feb-15 21:00N 35°31' E 139°45'0 0.0
2018-Feb-15 20:30N 35°31' E 139°45'0 0.0
2018-Feb-15 19:59N 35°31' E 139°45'0 0.0
2018-Feb-15 19:29N 35°31' E 139°45'0 0.0
2018-Feb-15 19:01N 35°31' E 139°45'0 0.0
2018-Feb-15 18:30N 35°31' E 139°45'0 0.0
2018-Feb-15 18:01N 35°31' E 139°45'0 0.0
2018-Feb-15 17:31N 35°31' E 139°45'0 0.0
2018-Feb-15 16:59N 35°31' E 139°45'0 0.0
2018-Feb-15 16:30N 35°31' E 139°45'0 0.0
2018-Feb-15 16:01N 35°31' E 139°45'0 0.0
2018-Feb-15 15:30N 35°31' E 139°45'0 0.0
2018-Feb-15 15:01N 35°31' E 139°45'0 0.0
2018-Feb-15 14:30N 35°31' E 139°45'0 0.0
2018-Feb-15 14:00N 35°31' E 139°45'0 0.0
2018-Feb-15 13:30N 35°31' E 139°45'0 0.0
2018-Feb-15 13:00N 35°31' E 139°45'0 0.0
2018-Feb-15 12:30N 35°31' E 139°45'0 0.0
2018-Feb-15 12:00N 35°31' E 139°45'1 2.1
2018-Feb-15 11:30N 35°31' E 139°46'712.1
2018-Feb-15 10:54N 35°31' E 139°55'512.4
2018-Feb-15 10:30N 35°33' E 140°01'1 1.2
2018-Feb-15 10:00N 35°33' E 140°02'2 3.4
2018-Feb-15 09:30N 35°32' E 140°03'0 0.1
2018-Feb-15 08:59N 35°32' E 140°03'0 0.0
2018-Feb-15 08:30N 35°32' E 140°03'0 0.0
2018-Feb-15 08:00N 35°32' E 140°03'0 0.0
2018-Feb-15 07:30N 35°32' E 140°03'0 0.0
2018-Feb-15 07:00N 35°32' E 140°03'0 0.0
2018-Feb-15 06:30N 35°32' E 140°03'0 0.0
2018-Feb-15 06:00N 35°32' E 140°03'0 0.0
2018-Feb-15 05:30N 35°32' E 140°03'0 0.0
2018-Feb-15 05:00N 35°32' E 140°03'0 0.1
2018-Feb-15 04:30N 35°32' E 140°03'4 6.4
2018-Feb-15 03:54N 35°31' E 139°59'511.3
2018-Feb-15 03:30N 35°29' E 139°54'611.3
2018-Feb-15 03:00N 35°26' E 139°48'611.1
2018-Feb-15 02:30N 35°21' E 139°45'510.4
2018-Feb-15 02:01N 35°16' E 139°46'510.6
2018-Feb-15 01:30N 35°11' E 139°46'510.4
2018-Feb-15 01:00N 35°06' E 139°44'3112.5
2018-Feb-14 22:32N 34°47' E 139°14'112.7
2018-Feb-14 22:30N 34°46' E 139°14'712.8
2018-Feb-14 21:56N 34°42' E 139°07'1111.9
2018-Feb-14 21:00N 34°35' E 138°56'19910.5
2018-Feb-14 02:01N 33°54' E 135°01'0 8.6
2018-Feb-14 02:00N 33°54' E 135°01'611.6
2018-Feb-14 01:30N 33°59' E 134°56'811.6
2018-Feb-14 00:47N 34°05' E 134°49'1811.0
2018-Feb-13 23:11N 34°17' E 134°34'  

Dump ship's entire track history